createdAt,value
2023-05-22T00:01:04.832Z,9.20
2023-05-22T00:03:31.302Z,9.85
2023-05-22T00:05:58.812Z,9.27
2023-05-22T00:08:29.310Z,9.77
2023-05-22T00:10:56.199Z,10.75
2023-05-22T00:13:22.688Z,10.80
2023-05-22T00:15:49.535Z,9.25
2023-05-22T00:18:16.149Z,9.43
2023-05-22T00:20:42.734Z,10.25
2023-05-22T00:23:10.225Z,10.57
2023-05-22T00:25:37.426Z,10.43
2023-05-22T00:28:04.782Z,11.25
2023-05-22T00:30:31.840Z,10.93
2023-05-22T00:32:58.482Z,11.35
2023-05-22T00:35:25.021Z,10.90
2023-05-22T00:37:51.452Z,9.88
2023-05-22T00:40:18.050Z,10.38
2023-05-22T00:42:44.944Z,10.73
2023-05-22T00:45:15.023Z,11.30
2023-05-22T00:47:42.006Z,11.10
2023-05-22T00:50:11.014Z,11.77
2023-05-22T00:52:42.962Z,12.07
2023-05-22T00:55:11.870Z,10.73
2023-05-22T00:57:41.888Z,11.20
2023-05-22T01:02:38.130Z,10.13
2023-05-22T01:05:11.145Z,10.70
2023-05-22T01:07:38.657Z,13.27
2023-05-22T01:10:06.121Z,12.40
2023-05-22T01:13:02.423Z,12.02
2023-05-22T01:15:47.295Z,11.90
2023-05-22T01:18:25.088Z,12.20
2023-05-22T01:21:04.175Z,11.75
2023-05-22T01:24:04.439Z,13.43
2023-05-22T01:26:58.878Z,13.02
2023-05-22T01:29:55.678Z,12.98
2023-05-22T01:32:25.754Z,12.55
2023-05-22T01:34:54.768Z,12.50
2023-05-22T01:37:22.530Z,12.80
2023-05-22T01:39:51.454Z,13.40
2023-05-22T01:42:18.943Z,12.13
2023-05-22T01:44:45.492Z,12.38
2023-05-22T01:47:11.998Z,10.80
2023-05-22T01:49:39.810Z,10.38
2023-05-22T01:52:06.667Z,11.15
2023-05-22T01:54:43.020Z,11.80
2023-05-22T01:57:12.252Z,10.65
2023-05-22T02:00:05.613Z,12.07
2023-05-22T02:02:49.090Z,9.88
2023-05-22T02:05:19.007Z,10.65
2023-05-22T02:07:47.560Z,9.65
2023-05-22T02:10:15.926Z,9.77
2023-05-22T02:12:42.638Z,9.55
2023-05-22T02:15:09.480Z,10.32
2023-05-22T02:17:42.626Z,10.38
2023-05-22T02:20:15.359Z,9.63
2023-05-22T02:22:47.885Z,10.50
2023-05-22T02:25:17.045Z,10.38
2023-05-22T02:27:45.910Z,9.55
2023-05-22T02:30:13.650Z,9.60
2023-05-22T02:32:42.295Z,9.82
2023-05-22T02:35:09.523Z,11.52
2023-05-22T02:37:36.782Z,11.48
2023-05-22T02:40:06.685Z,11.05
2023-05-22T02:42:34.434Z,10.55
2023-05-22T02:45:01.719Z,8.65
2023-05-22T02:47:28.341Z,9.85
2023-05-22T02:49:57.757Z,9.85
2023-05-22T02:52:24.888Z,8.40
2023-05-22T02:54:51.435Z,10.75
2023-05-22T02:57:18.576Z,11.00
2023-05-22T02:59:45.051Z,10.68
2023-05-22T03:02:14.979Z,7.22
2023-05-22T03:04:41.893Z,7.78
2023-05-22T03:07:08.840Z,8.18
2023-05-22T03:09:35.850Z,8.15
2023-05-22T03:12:02.405Z,7.95
2023-05-22T03:14:29.244Z,9.45
2023-05-22T03:16:56.299Z,10.82
2023-05-22T03:19:23.210Z,10.23
2023-05-22T03:21:50.060Z,10.60
2023-05-22T03:24:16.948Z,10.82
2023-05-22T03:26:43.905Z,11.30
2023-05-22T03:29:16.759Z,11.00
2023-05-22T03:31:43.590Z,12.00
2023-05-22T03:34:13.492Z,11.02
2023-05-22T03:36:42.331Z,12.13
2023-05-22T03:39:08.850Z,11.27
2023-05-22T03:41:40.175Z,9.98
2023-05-22T03:44:07.397Z,10.52
2023-05-22T03:46:33.936Z,11.32
2023-05-22T03:49:00.445Z,11.50
2023-05-22T03:51:27.023Z,11.98
2023-05-22T03:53:53.668Z,11.63
2023-05-22T03:56:21.091Z,12.05
2023-05-22T03:58:48.767Z,11.27
2023-05-22T04:01:16.924Z,12.98
2023-05-22T04:03:44.023Z,12.60
2023-05-22T04:06:10.904Z,12.93
2023-05-22T04:08:37.370Z,12.80
2023-05-22T04:11:05.320Z,12.60
2023-05-22T04:13:33.062Z,11.10
2023-05-22T04:16:01.955Z,9.77
2023-05-22T04:18:28.794Z,9.77
2023-05-22T04:20:57.404Z,10.55
2023-05-22T04:23:24.035Z,11.50
2023-05-22T04:25:51.229Z,10.02
2023-05-22T04:28:22.255Z,10.32
2023-05-22T04:30:49.388Z,10.55
2023-05-22T04:33:18.064Z,9.73
2023-05-22T04:35:44.615Z,9.27
2023-05-22T04:38:11.119Z,9.90
2023-05-22T04:40:38.084Z,10.85
2023-05-22T04:43:05.040Z,10.27
2023-05-22T04:45:32.778Z,10.73
2023-05-22T04:48:02.340Z,14.90
2023-05-22T04:50:32.531Z,11.15
2023-05-22T04:53:05.763Z,12.15
2023-05-22T04:55:35.146Z,12.15
2023-05-22T04:58:01.637Z,11.40
2023-05-22T05:00:29.093Z,13.85
2023-05-22T05:02:57.418Z,12.95
2023-05-22T05:05:24.301Z,13.35
2023-05-22T05:07:51.747Z,12.40
2023-05-22T05:10:19.455Z,12.50
2023-05-22T05:12:45.936Z,11.35
2023-05-22T05:15:12.728Z,13.00
2023-05-22T05:17:39.585Z,13.15
2023-05-22T05:20:07.878Z,14.00
2023-05-22T05:22:34.354Z,12.70
2023-05-22T05:25:03.624Z,12.30
2023-05-22T05:27:30.100Z,13.00
2023-05-22T05:29:58.842Z,12.15
2023-05-22T05:32:31.062Z,12.60
2023-05-22T05:35:07.787Z,12.25
2023-05-22T05:37:44.053Z,12.75
2023-05-22T05:40:12.194Z,13.88
2023-05-22T05:42:43.762Z,13.27
2023-05-22T05:45:11.392Z,12.05
2023-05-22T05:47:37.939Z,13.60
2023-05-22T05:50:04.914Z,12.50
2023-05-22T05:52:33.576Z,12.05
2023-05-22T05:55:04.337Z,12.32
2023-05-22T05:57:31.143Z,10.98
2023-05-22T05:59:57.973Z,11.35
2023-05-22T06:02:43.551Z,12.50
2023-05-22T06:05:26.852Z,12.32
2023-05-22T06:08:00.248Z,12.10
2023-05-22T06:10:27.208Z,9.95
2023-05-22T06:13:12.336Z,11.43
2023-05-22T06:15:40.038Z,10.25
2023-05-22T06:18:06.715Z,10.30
2023-05-22T06:20:33.406Z,11.00
2023-05-22T06:23:00.250Z,11.73
2023-05-22T06:25:29.938Z,10.93
2023-05-22T06:27:57.042Z,11.45
2023-05-22T06:30:43.720Z,10.88
2023-05-22T06:33:14.590Z,12.25
2023-05-22T06:35:42.111Z,10.50
2023-05-22T06:38:08.910Z,10.90
2023-05-22T06:40:35.665Z,10.13
2023-05-22T06:43:10.162Z,9.70
2023-05-22T06:45:46.002Z,11.10
2023-05-22T06:48:12.639Z,10.73
2023-05-22T06:50:51.994Z,9.63
2023-05-22T06:53:18.580Z,10.68
2023-05-22T06:55:45.166Z,10.32
2023-05-22T06:58:18.661Z,9.88
2023-05-22T07:00:45.296Z,10.18
2023-05-22T07:03:18.954Z,10.07
2023-05-22T07:06:18.329Z,10.90
2023-05-22T07:08:45.540Z,9.75
2023-05-22T07:11:12.122Z,11.15
2023-05-22T07:13:38.603Z,9.63
2023-05-22T07:16:06.384Z,10.00
2023-05-22T07:18:34.244Z,9.85
2023-05-22T07:21:01.518Z,10.13
2023-05-22T07:23:28.745Z,9.07
2023-05-22T07:25:55.389Z,10.00
2023-05-22T07:28:25.528Z,9.50
2023-05-22T07:31:00.336Z,9.20
2023-05-22T07:33:27.195Z,10.27
2023-05-22T07:35:54.791Z,9.95
2023-05-22T07:38:21.301Z,9.27
2023-05-22T07:40:56.356Z,8.95
2023-05-22T07:43:23.703Z,10.73
2023-05-22T07:45:51.153Z,8.45
2023-05-22T07:48:21.648Z,9.88
2023-05-22T07:50:48.307Z,9.77
2023-05-22T07:53:16.340Z,9.30
2023-05-22T07:55:44.294Z,9.45
2023-05-22T07:58:11.359Z,10.45
2023-05-22T08:00:41.709Z,9.52
2023-05-22T08:03:08.545Z,10.73
2023-05-22T08:05:35.170Z,10.45
2023-05-22T08:08:02.961Z,10.55
2023-05-22T08:10:37.218Z,10.90
2023-05-22T08:13:13.358Z,10.20
2023-05-22T08:15:39.813Z,9.43
2023-05-22T08:18:06.405Z,9.60
2023-05-22T08:20:33.530Z,9.30
2023-05-22T08:23:00.327Z,8.52
2023-05-22T08:25:26.845Z,10.23
2023-05-22T08:27:53.329Z,10.75
2023-05-22T08:30:19.850Z,8.57
2023-05-22T08:32:46.394Z,10.38
2023-05-22T08:35:14.221Z,9.45
2023-05-22T08:37:41.242Z,10.40
2023-05-22T08:40:11.481Z,10.10
2023-05-22T08:42:38.481Z,9.55
2023-05-22T08:45:07.004Z,11.15
2023-05-22T08:47:35.926Z,10.85
2023-05-22T08:50:03.206Z,9.70
2023-05-22T08:52:51.030Z,10.05
2023-05-22T08:55:19.525Z,11.77
2023-05-22T08:57:47.285Z,9.43
2023-05-22T09:00:14.420Z,8.55
2023-05-22T09:02:42.477Z,10.27
2023-05-22T09:05:09.792Z,10.32
2023-05-22T09:07:37.956Z,9.43
2023-05-22T09:10:07.040Z,11.32
2023-05-22T09:12:34.063Z,10.63
2023-05-22T09:15:10.142Z,11.02
2023-05-22T09:17:40.696Z,10.90
2023-05-22T09:20:10.084Z,11.93
2023-05-22T09:22:38.219Z,11.02
2023-05-22T09:25:05.418Z,11.82
2023-05-22T09:27:32.106Z,11.00
2023-05-22T09:29:58.668Z,9.85
2023-05-22T09:32:29.656Z,8.57
2023-05-22T09:35:04.027Z,11.13
2023-05-22T09:37:37.288Z,11.27
2023-05-22T09:40:09.474Z,10.48
2023-05-22T09:42:36.438Z,11.07
2023-05-22T09:45:07.752Z,11.93
2023-05-22T09:47:35.013Z,13.15
2023-05-22T09:50:06.188Z,11.25
2023-05-22T09:52:34.837Z,10.57
2023-05-22T09:55:08.830Z,10.25
2023-05-22T09:57:43.898Z,11.25
2023-05-22T10:00:15.910Z,8.25
2023-05-22T10:02:48.737Z,8.88
2023-05-22T10:05:22.068Z,8.25
2023-05-22T10:07:56.090Z,9.00
2023-05-22T10:10:25.917Z,9.10
2023-05-22T10:13:03.612Z,7.85
2023-05-22T10:15:32.153Z,8.20
2023-05-22T10:17:59.285Z,9.57
2023-05-22T10:20:26.835Z,8.23
2023-05-22T10:22:53.974Z,10.20
2023-05-22T10:25:23.337Z,9.32
2023-05-22T10:27:53.423Z,8.43
2023-05-22T10:30:47.648Z,8.38
2023-05-22T10:33:30.686Z,8.27
2023-05-22T10:36:08.610Z,9.13
2023-05-22T10:39:04.640Z,8.32
2023-05-22T10:41:31.370Z,8.65
2023-05-22T10:43:58.325Z,7.45
2023-05-22T10:46:25.302Z,8.23
2023-05-22T10:48:54.074Z,7.13
2023-05-22T10:51:23.557Z,7.97
2023-05-22T10:53:58.267Z,7.90
2023-05-22T10:56:33.228Z,7.10
2023-05-22T10:59:08.345Z,7.07
2023-05-22T11:01:37.890Z,7.90
2023-05-22T11:04:18.722Z,8.63
2023-05-22T11:07:02.702Z,8.27
2023-05-22T11:09:31.085Z,7.63
2023-05-22T11:12:27.442Z,8.30
2023-05-22T11:14:56.864Z,7.63
2023-05-22T11:17:28.953Z,7.53
2023-05-22T11:20:02.935Z,7.47
2023-05-22T11:22:37.554Z,9.02
2023-05-22T11:25:10.747Z,6.60
2023-05-22T11:27:40.608Z,6.80
2023-05-22T11:30:08.759Z,7.43
2023-05-22T11:32:39.674Z,6.72
2023-05-22T11:35:08.474Z,7.25
2023-05-22T11:37:41.637Z,7.18
2023-05-22T11:40:09.629Z,6.82
2023-05-22T11:42:37.615Z,7.75
2023-05-22T11:45:05.160Z,8.63
2023-05-22T11:47:31.834Z,8.45
2023-05-22T11:49:59.770Z,8.15
2023-05-22T11:52:33.967Z,7.07
2023-05-22T11:55:01.264Z,8.55
2023-05-22T11:57:28.366Z,9.00
2023-05-22T11:59:54.879Z,7.20
2023-05-22T12:02:21.444Z,6.45
2023-05-22T12:04:47.935Z,5.82
2023-05-22T12:07:14.499Z,6.25
2023-05-22T12:09:42.710Z,5.78
2023-05-22T12:12:11.240Z,6.15
2023-05-22T12:14:37.890Z,5.90
2023-05-22T12:17:04.472Z,5.25
2023-05-22T12:19:31.203Z,5.80
2023-05-22T12:21:58.770Z,4.85
2023-05-22T12:24:25.555Z,5.25
2023-05-22T12:26:53.263Z,4.95
2023-05-22T12:29:22.813Z,6.32
2023-05-22T12:31:49.480Z,6.40
2023-05-22T12:34:18.427Z,7.25
2023-05-22T12:36:46.944Z,6.65
2023-05-22T12:39:17.962Z,6.90
2023-05-22T12:41:45.642Z,6.55
2023-05-22T12:44:12.958Z,5.45
2023-05-22T12:46:41.010Z,5.45
2023-05-22T12:49:07.882Z,5.72
2023-05-22T12:51:34.847Z,5.32
2023-05-22T12:54:02.160Z,4.82
2023-05-22T12:56:31.760Z,6.20
2023-05-22T12:58:58.878Z,5.75
2023-05-22T13:01:26.221Z,5.75
2023-05-22T13:03:53.086Z,5.70
2023-05-22T13:06:20.356Z,5.70
2023-05-22T13:08:46.902Z,6.57
2023-05-22T13:11:13.332Z,6.07
2023-05-22T13:13:39.967Z,8.45
2023-05-22T13:16:06.501Z,7.72
2023-05-22T13:18:32.976Z,8.48
2023-05-22T13:21:00.229Z,7.50
2023-05-22T13:23:26.773Z,8.45
2023-05-22T13:25:53.295Z,7.47
2023-05-22T13:28:19.803Z,8.30
2023-05-22T13:30:46.236Z,8.13
2023-05-22T13:33:13.510Z,7.32
2023-05-22T13:35:40.337Z,8.07
2023-05-22T13:38:07.195Z,6.95
2023-05-22T13:40:33.730Z,6.00
2023-05-22T13:43:00.258Z,6.90
2023-05-22T13:45:27.643Z,5.32
2023-05-22T13:47:54.302Z,6.70
2023-05-22T13:50:20.840Z,6.80
2023-05-22T13:52:47.374Z,4.75
2023-05-22T13:55:13.892Z,5.38
2023-05-22T13:57:40.665Z,5.43
2023-05-22T14:00:09.319Z,4.68
2023-05-22T14:02:36.061Z,4.63
2023-05-22T14:05:02.829Z,5.07
2023-05-22T14:07:29.292Z,4.10
2023-05-22T14:09:55.824Z,4.82
2023-05-22T14:12:22.284Z,4.30
2023-05-22T14:14:48.726Z,4.10
2023-05-22T14:17:15.218Z,3.72
2023-05-22T14:19:41.742Z,4.65
2023-05-22T14:22:08.199Z,3.92
2023-05-22T14:24:34.727Z,4.25
2023-05-22T14:27:01.264Z,3.53
2023-05-22T14:29:28.070Z,4.35
2023-05-22T14:32:01.203Z,3.67
2023-05-22T14:34:27.690Z,3.70
2023-05-22T14:36:56.457Z,3.67
2023-05-22T14:39:24.632Z,4.20
2023-05-22T14:41:52.488Z,4.82
2023-05-22T14:44:19.511Z,5.13
2023-05-22T14:46:46.227Z,4.57
2023-05-22T14:49:12.857Z,3.47
2023-05-22T14:51:39.337Z,3.70
2023-05-22T14:54:06.838Z,3.20
2023-05-22T14:56:33.534Z,3.80
2023-05-22T14:59:00.031Z,4.30
2023-05-22T15:01:26.651Z,4.70
2023-05-22T15:03:53.192Z,3.65
2023-05-22T15:06:19.649Z,3.47
2023-05-22T15:08:46.091Z,3.45
2023-05-22T15:11:12.636Z,4.25
2023-05-22T15:13:39.069Z,4.03
2023-05-22T15:16:05.583Z,4.50
2023-05-22T15:18:32.072Z,4.32
2023-05-22T15:20:58.665Z,3.95
2023-05-22T15:23:26.488Z,4.18
2023-05-22T15:25:53.891Z,4.22
2023-05-22T15:28:21.364Z,4.97
2023-05-22T15:30:47.868Z,3.83
2023-05-22T15:33:15.093Z,3.42
2023-05-22T15:35:43.424Z,3.40
2023-05-22T15:38:12.522Z,1.90
2023-05-22T15:40:44.302Z,2.28
2023-05-22T15:43:10.911Z,2.42
2023-05-22T15:45:38.144Z,2.03
2023-05-22T15:48:05.868Z,1.58
2023-05-22T15:50:33.771Z,1.50
2023-05-22T15:53:01.014Z,1.33
2023-05-22T15:55:28.768Z,1.48
2023-05-22T15:57:55.296Z,1.10
2023-05-22T16:00:21.886Z,1.17
2023-05-22T16:02:49.249Z,1.00
2023-05-22T16:05:16.169Z,1.25
2023-05-22T16:07:42.592Z,1.33
2023-05-22T16:10:09.373Z,1.02
2023-05-22T16:12:35.914Z,1.30
2023-05-22T16:15:03.835Z,1.13
2023-05-22T16:17:31.713Z,1.52
2023-05-22T16:19:58.227Z,1.70
2023-05-22T16:22:30.401Z,1.42
2023-05-22T16:25:03.190Z,1.67
2023-05-22T16:27:29.680Z,1.88
2023-05-22T16:29:56.201Z,1.88
2023-05-22T16:32:22.977Z,1.10
2023-05-22T16:34:49.520Z,2.08
2023-05-22T16:37:15.993Z,1.33
2023-05-22T16:39:45.908Z,1.30
2023-05-22T16:42:12.632Z,1.85
2023-05-22T16:44:39.057Z,1.85
2023-05-22T16:47:05.628Z,1.40
2023-05-22T16:49:32.178Z,1.52
2023-05-22T16:51:58.778Z,1.45
2023-05-22T16:54:25.311Z,1.80
2023-05-22T16:56:51.952Z,2.35
2023-05-22T16:59:19.436Z,2.05
2023-05-22T17:01:46.654Z,1.88
2023-05-22T17:04:15.585Z,1.25
2023-05-22T17:06:43.316Z,1.60
2023-05-22T17:09:10.343Z,1.30
2023-05-22T17:11:37.412Z,1.30
2023-05-22T17:14:04.393Z,1.90
2023-05-22T17:16:31.493Z,2.30
2023-05-22T17:18:58.042Z,2.20
2023-05-22T17:21:24.642Z,2.05
2023-05-22T17:23:51.078Z,2.15
2023-05-22T17:26:17.551Z,2.30
2023-05-22T17:28:44.522Z,1.75
2023-05-22T17:31:10.981Z,2.20
2023-05-22T17:33:37.490Z,2.17
2023-05-22T17:36:04.151Z,3.40
2023-05-22T17:38:30.795Z,3.03
2023-05-22T17:40:57.751Z,3.80
2023-05-22T17:43:24.253Z,3.22
2023-05-22T17:45:50.914Z,3.10
2023-05-22T17:48:26.929Z,3.60
2023-05-22T17:50:53.729Z,2.67
2023-05-22T17:53:20.990Z,2.70
2023-05-22T17:55:49.319Z,2.53
2023-05-22T17:58:16.644Z,2.97
2023-05-22T18:00:43.553Z,2.30
2023-05-22T18:03:10.166Z,2.67
2023-05-22T18:05:36.747Z,3.17
2023-05-22T18:08:03.519Z,2.55
2023-05-22T18:10:30.080Z,2.10
2023-05-22T18:12:56.541Z,2.47
2023-05-22T18:15:23.180Z,2.65
2023-05-22T18:17:49.723Z,2.88
2023-05-22T18:20:16.838Z,3.20
2023-05-22T18:22:43.394Z,3.25
2023-05-22T18:25:10.066Z,3.35
2023-05-22T18:27:36.672Z,2.70
2023-05-22T18:30:05.029Z,2.50
2023-05-22T18:32:31.759Z,2.67
2023-05-22T18:35:03.771Z,2.17
2023-05-22T18:37:30.313Z,2.25
2023-05-22T18:39:57.033Z,2.53
2023-05-22T18:42:23.750Z,2.83
2023-05-22T18:44:50.664Z,2.58
2023-05-22T18:47:17.455Z,2.25
2023-05-22T18:49:43.990Z,2.65
2023-05-22T18:52:10.481Z,3.75
2023-05-22T18:54:36.949Z,2.85
2023-05-22T18:57:03.733Z,3.53
2023-05-22T18:59:30.170Z,3.65
2023-05-22T19:01:56.639Z,3.10
2023-05-22T19:04:23.118Z,2.70
2023-05-22T19:06:49.593Z,2.42
2023-05-22T19:09:16.599Z,2.75
2023-05-22T19:11:43.073Z,3.17
2023-05-22T19:14:09.510Z,3.35
2023-05-22T19:16:35.956Z,3.53
2023-05-22T19:19:03.162Z,3.17
2023-05-22T19:21:29.653Z,3.47
2023-05-22T19:23:56.115Z,3.60
2023-05-22T19:26:22.664Z,3.58
2023-05-22T19:28:49.182Z,4.05
2023-05-22T19:31:16.387Z,3.72
2023-05-22T19:33:43.621Z,3.58
2023-05-22T19:36:10.098Z,3.15
2023-05-22T19:38:36.593Z,3.22
2023-05-22T19:41:03.098Z,4.75
2023-05-22T19:43:31.246Z,4.25
2023-05-22T19:45:58.403Z,4.65
2023-05-22T19:48:25.611Z,5.00
2023-05-22T19:50:52.288Z,3.45
2023-05-22T19:53:18.885Z,4.75
2023-05-22T19:55:45.922Z,5.22
2023-05-22T19:58:12.361Z,4.13
2023-05-22T20:00:39.223Z,3.88
2023-05-22T20:03:05.987Z,4.00
2023-05-22T20:05:32.690Z,4.15
2023-05-22T20:07:59.239Z,4.18
2023-05-22T20:10:25.998Z,4.10
2023-05-22T20:12:55.595Z,4.28
2023-05-22T20:15:22.751Z,4.32
2023-05-22T20:17:51.985Z,4.10
2023-05-22T20:20:19.470Z,5.15
2023-05-22T20:22:46.104Z,5.28
2023-05-22T20:25:13.597Z,4.63
2023-05-22T20:27:40.226Z,5.82
2023-05-22T20:30:07.809Z,5.78
2023-05-22T20:32:34.691Z,6.00
2023-05-22T20:35:01.111Z,6.13
2023-05-22T20:37:27.597Z,5.32
2023-05-22T20:39:54.303Z,5.00
2023-05-22T20:42:22.318Z,5.20
2023-05-22T20:44:48.787Z,4.88
2023-05-22T20:47:15.259Z,4.50
2023-05-22T20:49:41.850Z,6.50
2023-05-22T20:52:09.955Z,5.93
2023-05-22T20:54:36.476Z,3.97
2023-05-22T20:57:03.229Z,3.08
2023-05-22T20:59:29.884Z,3.63
2023-05-22T21:01:57.015Z,2.70
2023-05-22T21:04:23.964Z,2.97
2023-05-22T21:06:50.918Z,2.35
2023-05-22T21:09:17.422Z,2.47
2023-05-22T21:11:43.910Z,2.20
2023-05-22T21:14:10.340Z,2.53
2023-05-22T21:16:39.293Z,2.20
2023-05-22T21:19:06.990Z,1.83
2023-05-22T21:21:33.663Z,2.40
2023-05-22T21:24:00.126Z,2.15
2023-05-22T21:26:27.459Z,2.67
2023-05-22T21:28:54.640Z,2.92
2023-05-22T21:31:21.200Z,3.17
2023-05-22T21:33:47.711Z,3.17
2023-05-22T21:36:14.139Z,2.17
2023-05-22T21:38:41.043Z,2.30
2023-05-22T21:41:07.532Z,2.80
2023-05-22T21:43:34.051Z,2.67
2023-05-22T21:46:00.526Z,2.17
2023-05-22T21:48:26.963Z,2.28
2023-05-22T21:50:53.454Z,2.47
2023-05-22T21:53:20.789Z,2.95
2023-05-22T21:55:47.248Z,2.42
2023-05-22T21:58:13.750Z,2.60
2023-05-22T22:00:41.105Z,2.70
2023-05-22T22:03:07.992Z,2.55
2023-05-22T22:05:35.937Z,2.45
2023-05-22T22:08:02.496Z,2.33
2023-05-22T22:10:29.009Z,3.35
2023-05-22T22:12:55.673Z,2.03
2023-05-22T22:15:22.469Z,2.83
2023-05-22T22:17:50.147Z,3.45
2023-05-22T22:20:18.675Z,3.65
2023-05-22T22:22:49.018Z,2.97
2023-05-22T22:25:15.490Z,3.60
2023-05-22T22:27:41.985Z,3.25
2023-05-22T22:30:09.130Z,2.83
2023-05-22T22:32:36.594Z,4.15
2023-05-22T22:35:03.086Z,2.58
2023-05-22T22:37:29.570Z,4.60
2023-05-22T22:39:56.162Z,3.85
2023-05-22T22:42:22.908Z,4.32
2023-05-22T22:44:49.433Z,4.10
2023-05-22T22:47:15.968Z,4.10
2023-05-22T22:49:42.385Z,4.00
2023-05-22T22:52:08.905Z,4.00
2023-05-22T22:54:35.490Z,4.35
2023-05-22T22:57:02.228Z,4.70
2023-05-22T22:59:28.763Z,3.63
2023-05-22T23:01:55.246Z,4.32
2023-05-22T23:04:21.796Z,3.53
2023-05-22T23:06:48.294Z,4.78
2023-05-22T23:09:14.845Z,3.47
2023-05-22T23:11:41.378Z,4.07
2023-05-22T23:14:09.460Z,4.85
2023-05-22T23:16:37.371Z,4.60
2023-05-22T23:19:04.729Z,3.78
2023-05-22T23:21:32.177Z,3.58
2023-05-22T23:23:59.206Z,4.07
2023-05-22T23:26:26.721Z,3.38
2023-05-22T23:28:53.249Z,5.07
2023-05-22T23:31:21.183Z,4.45
2023-05-22T23:33:47.849Z,4.40
2023-05-22T23:36:14.329Z,3.67
2023-05-22T23:38:40.918Z,4.22
2023-05-22T23:41:07.390Z,4.60
2023-05-22T23:43:33.827Z,3.70
2023-05-22T23:46:00.421Z,4.72
2023-05-22T23:48:26.924Z,4.30
2023-05-22T23:50:53.338Z,3.75
2023-05-22T23:53:19.754Z,3.88
2023-05-22T23:55:46.340Z,3.92
2023-05-22T23:58:12.816Z,4.55
